Terminal Aerodrome Forecast
Issued by NWS

Home | Current Version | Previous Version | Text Only | Print | Product List | Glossary On
Versions: 1 2 3 4 5 6 7 8 9 10 11 12 13 14
427
FTUS42 KTBW 300538
TAFLAL
TAF
KLAL 300538Z 3006/3106 VRB03KT P6SM FEW020 SCT090
     FM301600 30006KT P6SM VCTS BKN040CB
     FM310400 VRB03KT P6SM SCT050 BKN100
      AMD NOT SKED TIL 301100=

USA.gov is the U.S. government's official web portal to all federal, state and local government web resources and services.